createdAt,value
2019-04-23T00:02:20.595Z,37.20
2019-04-23T00:04:48.063Z,37.40
2019-04-23T00:07:39.177Z,37.50
2019-04-23T00:10:03.453Z,37.60
2019-04-23T00:12:40.853Z,37.70
2019-04-23T00:15:04.869Z,37.60
2019-04-23T00:20:03.842Z,37.50
2019-04-23T00:23:05.040Z,37.50
2019-04-23T00:25:49.239Z,37.50
2019-04-23T00:28:24.453Z,37.80
2019-04-23T00:33:18.627Z,37.80
2019-04-23T00:35:44.103Z,38.00
2019-04-23T00:38:18.349Z,38.20
2019-04-23T00:40:43.633Z,38.20
2019-04-23T00:45:59.346Z,38.30
2019-04-23T00:48:31.226Z,38.40
2019-04-23T00:50:58.517Z,38.60
2019-04-23T00:53:24.898Z,38.70
2019-04-23T00:56:03.637Z,38.90
2019-04-23T00:58:27.840Z,38.90
2019-04-23T01:00:53.984Z,39.60
2019-04-23T01:03:21.499Z,39.40
2019-04-23T01:05:52.273Z,39.40
2019-04-23T01:11:04.631Z,39.60
2019-04-23T01:13:39.423Z,39.60
2019-04-23T01:16:08.622Z,39.90
2019-04-23T01:21:03.324Z,40.00
2019-04-23T01:23:54.467Z,40.90
2019-04-23T01:26:46.112Z,40.20
2019-04-23T01:29:35.853Z,40.40
2019-04-23T01:31:47.984Z,40.50
2019-04-23T01:34:24.438Z,40.60
2019-04-23T01:36:54.163Z,40.70
2019-04-23T01:39:17.171Z,40.60
2019-04-23T01:41:57.429Z,40.60
2019-04-23T01:44:32.770Z,40.90
2019-04-23T01:46:54.497Z,41.00
2019-04-23T01:49:32.761Z,41.30
2019-04-23T01:54:25.986Z,41.70
2019-04-23T01:56:56.258Z,41.60
2019-04-23T01:59:31.654Z,42.30
2019-04-23T02:01:58.214Z,42.20
2019-04-23T02:04:28.521Z,42.00
2019-04-23T02:07:06.155Z,42.50
2019-04-23T02:12:07.469Z,42.50
2019-04-23T02:14:34.868Z,42.90
2019-04-23T02:17:10.180Z,42.70
2019-04-23T02:19:38.510Z,42.60
2019-04-23T02:22:46.336Z,42.80
2019-04-23T02:28:07.574Z,42.70
2019-04-23T02:33:22.985Z,42.60
2019-04-23T02:35:56.241Z,42.90
2019-04-23T02:40:55.004Z,43.00
2019-04-23T02:45:58.811Z,43.40
2019-04-23T02:48:24.813Z,44.00
2019-04-23T02:53:37.667Z,43.70
2019-04-23T02:58:26.411Z,44.40
2019-04-23T03:01:21.908Z,43.70
2019-04-23T03:05:57.702Z,44.50
2019-04-23T03:13:43.865Z,44.30
2019-04-23T03:17:15.164Z,44.10
2019-04-23T03:22:54.442Z,44.10
2019-04-23T03:44:49.722Z,44.40
2019-04-23T03:48:05.994Z,44.20
2019-04-23T03:54:26.001Z,44.50
2019-04-23T04:00:32.635Z,44.70
2019-04-23T04:10:00.201Z,44.60
2019-04-23T04:13:30.403Z,44.70
2019-04-23T04:18:38.763Z,44.80
2019-04-23T04:23:41.063Z,45.30
2019-04-23T04:26:05.275Z,45.10
2019-04-23T04:28:38.803Z,45.10
2019-04-23T04:31:04.920Z,45.00
2019-04-23T04:33:49.070Z,45.00
2019-04-23T04:36:14.037Z,44.80
2019-04-23T04:46:21.428Z,44.90
2019-04-23T04:58:58.468Z,44.90
2019-04-23T05:03:36.593Z,44.90
2019-04-23T05:08:54.651Z,45.00
2019-04-23T05:11:26.386Z,44.80
2019-04-23T05:16:19.323Z,44.80
2019-04-23T05:19:20.108Z,44.80
2019-04-23T05:21:46.649Z,45.00
2019-04-23T05:26:27.105Z,45.10
2019-04-23T05:29:04.867Z,44.90
2019-04-23T05:36:44.141Z,45.10
2019-04-23T05:39:19.280Z,45.20
2019-04-23T05:41:41.253Z,45.00
2019-04-23T05:44:19.659Z,45.10
2019-04-23T05:51:50.992Z,45.10
2019-04-23T05:56:46.862Z,44.90
2019-04-23T05:59:21.861Z,44.60
2019-04-23T06:09:25.260Z,44.50
2019-04-23T06:12:01.523Z,44.50
2019-04-23T06:14:25.868Z,44.60
2019-04-23T06:16:57.513Z,44.50
2019-04-23T06:19:21.075Z,44.40
2019-04-23T06:22:07.424Z,44.10
2019-04-23T06:27:06.922Z,43.30
2019-04-23T06:32:01.299Z,44.00
2019-04-23T06:34:36.370Z,43.00
2019-04-23T06:37:09.585Z,42.90
2019-04-23T06:39:42.832Z,43.30
2019-04-23T06:42:05.977Z,43.30
2019-04-23T06:47:22.051Z,42.60
2019-04-23T06:50:08.086Z,43.00
2019-04-23T06:52:21.272Z,43.10
2019-04-23T07:00:13.558Z,42.70
2019-04-23T07:02:34.316Z,43.20
2019-04-23T07:05:06.643Z,42.70
2019-04-23T07:10:06.044Z,42.80
2019-04-23T07:12:36.514Z,43.30
2019-04-23T07:15:25.103Z,43.30
2019-04-23T07:17:34.545Z,43.20
2019-04-23T07:20:08.271Z,43.20
2019-04-23T07:22:37.504Z,42.30
2019-04-23T07:25:14.097Z,42.60
2019-04-23T07:27:43.329Z,42.70
2019-04-23T07:30:17.145Z,42.60
2019-04-23T07:35:11.662Z,42.90
2019-04-23T07:37:54.557Z,42.70
2019-04-23T07:43:08.423Z,42.40
2019-04-23T07:45:54.858Z,42.10
2019-04-23T07:48:43.889Z,41.30
2019-04-23T07:50:57.884Z,41.10
2019-04-23T07:56:05.985Z,41.10
2019-04-23T07:58:28.580Z,41.00
2019-04-23T08:03:39.833Z,39.80
2019-04-23T08:06:00.572Z,39.50
2019-04-23T08:08:37.294Z,39.50
2019-04-23T08:11:30.922Z,39.40
2019-04-23T08:13:47.337Z,40.00
2019-04-23T08:16:25.973Z,39.20
2019-04-23T08:18:49.773Z,38.80
2019-04-23T08:21:15.126Z,38.90
2019-04-23T08:26:50.183Z,37.80
2019-04-23T08:29:19.451Z,37.60
2019-04-23T08:31:56.240Z,38.10
2019-04-23T08:34:30.731Z,39.00
2019-04-23T08:37:00.499Z,38.70
2019-04-23T08:39:24.942Z,39.30
2019-04-23T08:42:09.767Z,38.20
2019-04-23T08:44:49.441Z,38.40
2019-04-23T08:47:21.844Z,38.10
2019-04-23T08:49:47.688Z,37.50
2019-04-23T08:52:18.665Z,37.60
2019-04-23T08:57:21.433Z,37.20
2019-04-23T08:59:48.644Z,37.40
2019-04-23T09:02:30.821Z,36.80
2019-04-23T09:04:53.864Z,36.70
2019-04-23T09:07:27.965Z,36.80
2019-04-23T09:09:56.835Z,36.90
2019-04-23T09:12:31.564Z,36.60
2019-04-23T09:14:59.046Z,36.70
2019-04-23T09:20:13.194Z,37.30
2019-04-23T09:25:02.710Z,36.40
2019-04-23T09:27:33.230Z,36.50
2019-04-23T09:30:11.089Z,36.40
2019-04-23T09:35:46.749Z,36.80
2019-04-23T09:38:25.414Z,36.80
2019-04-23T09:47:01.935Z,36.50
2019-04-23T09:49:39.480Z,36.80
2019-04-23T09:52:00.753Z,36.50
2019-04-23T09:54:32.530Z,36.60
2019-04-23T09:56:57.428Z,36.60
2019-04-23T10:01:55.057Z,35.80
2019-04-23T10:04:26.535Z,35.70
2019-04-23T10:06:55.337Z,35.70
2019-04-23T10:09:12.649Z,35.50
2019-04-23T10:11:43.118Z,35.20
2019-04-23T10:14:14.478Z,35.20
2019-04-23T10:16:45.061Z,35.90
2019-04-23T10:19:15.081Z,35.80
2019-04-23T10:21:46.721Z,35.60
2019-04-23T10:24:17.075Z,35.80
2019-04-23T10:26:48.028Z,35.10
2019-04-23T10:29:23.866Z,35.10
2019-04-23T10:31:53.694Z,35.00
2019-04-23T10:34:23.368Z,35.60
2019-04-23T10:36:53.614Z,35.80
2019-04-23T10:39:29.841Z,36.10
2019-04-23T10:41:56.738Z,34.80
2019-04-23T10:44:40.705Z,34.50
2019-04-23T10:48:10.150Z,35.00
2019-04-23T10:50:44.480Z,34.60
2019-04-23T10:53:23.455Z,35.30
2019-04-23T10:55:45.082Z,35.70
2019-04-23T10:58:08.342Z,35.70
2019-04-23T11:00:44.974Z,35.80
2019-04-23T11:03:20.581Z,35.70
2019-04-23T11:05:56.330Z,34.50
2019-04-23T11:08:10.469Z,34.00
2019-04-23T11:10:44.584Z,34.40
2019-04-23T11:13:25.733Z,35.00
2019-04-23T11:16:11.029Z,35.00
2019-04-23T11:18:40.183Z,34.60
2019-04-23T11:20:56.709Z,34.80
2019-04-23T11:23:29.107Z,34.80
2019-04-23T11:25:56.112Z,34.80
2019-04-23T11:28:33.030Z,35.20
2019-04-23T11:31:17.155Z,35.20
2019-04-23T11:33:40.279Z,34.80
2019-04-23T11:41:20.745Z,34.60
2019-04-23T11:43:38.072Z,34.10
2019-04-23T11:53:52.525Z,34.80
2019-04-23T11:56:48.833Z,35.30
2019-04-23T11:58:44.572Z,35.10
2019-04-23T12:07:29.729Z,34.60
2019-04-23T12:10:29.064Z,35.00
2019-04-23T12:12:46.009Z,35.10
2019-04-23T12:15:32.061Z,34.30
2019-04-23T12:20:31.875Z,34.40
2019-04-23T12:23:07.462Z,33.10
2019-04-23T12:25:32.531Z,32.80
2019-04-23T12:27:46.956Z,33.00
2019-04-23T12:33:08.549Z,33.20
2019-04-23T12:35:35.518Z,32.90
2019-04-23T12:38:11.535Z,32.70
2019-04-23T12:40:40.464Z,32.50
2019-04-23T12:48:25.656Z,32.50
2019-04-23T12:53:29.301Z,33.40
2019-04-23T12:55:43.745Z,32.70
2019-04-23T13:00:52.766Z,32.60
2019-04-23T13:05:49.151Z,33.10
2019-04-23T13:08:41.544Z,32.30
2019-04-23T13:11:01.625Z,32.70
2019-04-23T13:16:02.521Z,33.00
2019-04-23T13:21:07.042Z,32.10
2019-04-23T13:23:47.007Z,31.80
2019-04-23T13:26:05.688Z,31.90
2019-04-23T13:31:12.462Z,30.80
2019-04-23T13:33:43.847Z,30.90
2019-04-23T13:43:47.933Z,30.00
2019-04-23T13:48:46.996Z,31.20
2019-04-23T13:51:28.269Z,30.00
2019-04-23T13:53:53.656Z,30.20
2019-04-23T13:56:36.701Z,30.10
2019-04-23T13:59:08.622Z,30.30
2019-04-23T14:01:35.577Z,30.40
2019-04-23T14:04:29.533Z,30.70
2019-04-23T14:06:47.535Z,30.70
2019-04-23T14:09:20.071Z,30.80
2019-04-23T14:11:40.024Z,30.80
2019-04-23T14:14:34.510Z,30.70
2019-04-23T14:17:18.007Z,30.40
2019-04-23T14:19:16.479Z,30.30
2019-04-23T14:21:51.812Z,30.40
2019-04-23T14:24:32.606Z,30.40
2019-04-23T14:26:59.570Z,30.60
2019-04-23T14:29:31.900Z,30.80
2019-04-23T14:32:04.312Z,30.90
2019-04-23T14:34:29.223Z,31.20
2019-04-23T14:37:09.215Z,31.40
2019-04-23T14:39:32.077Z,31.30
2019-04-23T14:44:40.544Z,31.60
2019-04-23T14:47:24.072Z,31.90
2019-04-23T14:50:18.612Z,32.10
2019-04-23T14:55:35.592Z,31.90
2019-04-23T14:57:35.301Z,32.00
2019-04-23T15:00:03.287Z,32.00
2019-04-23T15:05:05.693Z,32.20
2019-04-23T15:07:38.135Z,32.40
2019-04-23T15:10:12.838Z,32.10
2019-04-23T15:12:36.582Z,32.40
2019-04-23T15:15:12.711Z,32.70
2019-04-23T15:20:14.956Z,32.90
2019-04-23T15:23:14.374Z,33.10
2019-04-23T15:30:08.696Z,33.60
2019-04-23T15:40:22.996Z,34.00
2019-04-23T15:42:55.626Z,34.10
2019-04-23T15:45:21.353Z,33.80
2019-04-23T15:50:28.395Z,34.40
2019-04-23T15:52:58.181Z,34.50
2019-04-23T15:55:27.592Z,35.00
2019-04-23T15:58:09.852Z,34.50
2019-04-23T16:00:32.868Z,34.70
2019-04-23T16:02:36.088Z,35.00
2019-04-23T16:05:08.418Z,35.30
2019-04-23T16:07:55.785Z,35.10
2019-04-23T16:10:45.425Z,35.10
2019-04-23T16:13:13.580Z,34.90
2019-04-23T16:15:43.463Z,34.90
2019-04-23T16:18:37.177Z,35.00
2019-04-23T16:21:14.472Z,35.10
2019-04-23T16:23:59.383Z,35.10
2019-04-23T16:26:24.176Z,35.00
2019-04-23T16:31:33.495Z,35.30
2019-04-23T16:34:20.819Z,35.20
2019-04-23T16:36:54.684Z,34.90
2019-04-23T16:39:22.145Z,34.40
2019-04-23T16:41:47.460Z,34.70
2019-04-23T16:44:21.901Z,34.50
2019-04-23T16:49:46.116Z,34.50
2019-04-23T16:51:47.561Z,34.50
2019-04-23T16:54:32.533Z,34.70
2019-04-23T16:57:13.198Z,35.00
2019-04-23T16:59:32.842Z,34.90
2019-04-23T17:04:34.559Z,35.10
2019-04-23T17:07:02.351Z,35.00
2019-04-23T17:09:42.697Z,35.40
2019-04-23T17:14:38.076Z,35.60
2019-04-23T17:17:08.102Z,35.60
2019-04-23T17:19:40.140Z,35.80
2019-04-23T17:22:13.583Z,36.00
2019-04-23T17:24:40.561Z,36.10
2019-04-23T17:27:16.698Z,36.20
2019-04-23T17:29:41.946Z,36.10
2019-04-23T17:32:14.939Z,36.10
2019-04-23T17:35:17.846Z,36.30
2019-04-23T17:38:00.477Z,36.00
2019-04-23T17:40:39.695Z,36.40
2019-04-23T17:43:08.868Z,36.80
2019-04-23T17:48:15.730Z,37.90
2019-04-23T17:51:02.673Z,38.30
2019-04-23T17:53:25.369Z,38.30
2019-04-23T17:56:13.536Z,38.60
2019-04-23T17:58:28.592Z,38.60
2019-04-23T18:03:45.515Z,38.50
2019-04-23T18:06:21.635Z,38.70
2019-04-23T18:08:43.544Z,38.70
2019-04-23T18:11:16.300Z,38.80
2019-04-23T18:13:46.380Z,38.50
2019-04-23T18:16:21.908Z,38.50
2019-04-23T18:18:59.066Z,38.50
2019-04-23T18:21:53.259Z,38.50
2019-04-23T18:24:26.003Z,38.60
2019-04-23T18:29:59.754Z,38.50
2019-04-23T18:33:00.216Z,38.30
2019-04-23T18:37:29.819Z,38.40
2019-04-23T18:40:01.574Z,38.60
2019-04-23T18:45:07.158Z,38.70
2019-04-23T18:47:40.534Z,38.90
2019-04-23T18:50:19.515Z,38.90
2019-04-23T18:53:00.772Z,39.00
2019-04-23T18:55:19.170Z,39.20
2019-04-23T18:57:48.660Z,39.20
2019-04-23T19:00:18.756Z,39.30
2019-04-23T19:03:10.763Z,39.40
2019-04-23T19:05:49.517Z,39.50
2019-04-23T19:08:42.457Z,39.50
2019-04-23T19:10:57.460Z,39.60
2019-04-23T19:13:31.205Z,39.90
2019-04-23T19:15:52.549Z,39.90
2019-04-23T19:18:40.460Z,40.20
2019-04-23T19:21:08.683Z,40.30
2019-04-23T19:23:39.441Z,40.10
2019-04-23T19:26:07.981Z,39.80
2019-04-23T19:31:46.060Z,40.60
2019-04-23T19:36:54.651Z,41.10
2019-04-23T19:39:32.113Z,41.30
2019-04-23T19:41:55.676Z,41.40
2019-04-23T19:44:15.924Z,41.60
2019-04-23T19:56:55.157Z,42.30
2019-04-23T19:59:31.574Z,42.50
2019-04-23T20:04:39.181Z,42.80
2019-04-23T20:12:05.969Z,42.90
2019-04-23T20:19:58.735Z,43.00
2019-04-23T20:30:23.479Z,43.30
2019-04-23T20:33:33.444Z,43.40
2019-04-23T20:35:13.121Z,43.40
2019-04-23T20:40:23.716Z,43.60
2019-04-23T20:42:54.923Z,43.60
2019-04-23T20:45:24.498Z,43.90
2019-04-23T20:47:56.230Z,43.60
2019-04-23T20:50:31.484Z,43.90
2019-04-23T20:52:51.523Z,43.90
2019-04-23T20:55:45.309Z,44.20
2019-04-23T20:58:14.058Z,44.20
2019-04-23T21:01:05.114Z,44.20
2019-04-23T21:03:41.494Z,44.20
2019-04-23T21:06:07.161Z,44.30
2019-04-23T21:08:51.864Z,44.40
2019-04-23T21:10:55.670Z,44.60
2019-04-23T21:13:53.881Z,44.80
2019-04-23T21:16:08.285Z,44.80
2019-04-23T21:21:13.591Z,45.20
2019-04-23T21:23:44.069Z,45.40
2019-04-23T21:26:01.586Z,45.80
2019-04-23T21:28:44.072Z,46.00
2019-04-23T21:31:35.482Z,46.20
2019-04-23T21:33:56.887Z,46.40
2019-04-23T21:36:57.801Z,47.10
2019-04-23T21:39:54.104Z,46.60
2019-04-23T21:45:04.585Z,47.70
2019-04-23T21:47:51.766Z,47.20
2019-04-23T21:50:19.209Z,47.40
2019-04-23T21:52:44.572Z,47.50
2019-04-23T21:55:09.798Z,47.50
2019-04-23T21:57:53.826Z,47.60
2019-04-23T22:00:13.817Z,47.80
2019-04-23T22:02:59.435Z,47.90
2019-04-23T22:05:25.027Z,48.00
2019-04-23T22:08:03.548Z,48.20
2019-04-23T22:10:20.287Z,48.40
2019-04-23T22:13:02.643Z,48.20
2019-04-23T22:15:34.565Z,48.40
2019-04-23T22:17:50.090Z,48.60
2019-04-23T22:20:34.729Z,48.70
2019-04-23T22:23:05.473Z,48.70
2019-04-23T22:25:34.811Z,48.80
2019-04-23T22:28:08.304Z,48.80
2019-04-23T22:30:45.209Z,49.20
2019-04-23T22:33:18.036Z,49.30
2019-04-23T22:35:37.846Z,49.30
2019-04-23T22:38:12.865Z,49.40
2019-04-23T22:40:35.505Z,49.30
2019-04-23T22:43:15.034Z,49.30
2019-04-23T22:45:44.379Z,49.50
2019-04-23T22:48:11.088Z,49.50
2019-04-23T22:50:47.131Z,49.50
2019-04-23T22:55:51.406Z,49.60
2019-04-23T22:58:09.611Z,49.70
2019-04-23T23:01:15.907Z,50.00
2019-04-23T23:03:41.885Z,50.10
2019-04-23T23:08:57.465Z,50.40
2019-04-23T23:11:08.498Z,50.40
2019-04-23T23:13:58.617Z,50.60
2019-04-23T23:18:40.456Z,50.90
2019-04-23T23:21:16.373Z,51.00
2019-04-23T23:23:48.130Z,51.00
2019-04-23T23:26:16.973Z,51.20
2019-04-23T23:28:44.664Z,51.50
2019-04-23T23:33:54.226Z,51.60
2019-04-23T23:36:23.361Z,51.70
2019-04-23T23:39:00.029Z,51.90
2019-04-23T23:41:28.709Z,51.60
2019-04-23T23:44:20.888Z,52.20
2019-04-23T23:46:47.107Z,51.60
2019-04-23T23:48:59.102Z,51.70
2019-04-23T23:51:29.105Z,51.80
2019-04-23T23:56:47.005Z,51.70
2019-04-23T23:59:10.636Z,51.70
